sensor_id;sensor_type;location;lat;lon;timestamp;P1;durP1;ratioP1;P2;durP2;ratioP2
66946;SDS011;53853;51.982;5.928;2024-02-04T00:01:03;12.70;;;10.30;;
66946;SDS011;53853;51.982;5.928;2024-02-04T00:03:33;11.00;;;8.85;;
66946;SDS011;53853;51.982;5.928;2024-02-04T00:06:03;9.88;;;8.52;;
66946;SDS011;53853;51.982;5.928;2024-02-04T00:08:33;12.45;;;9.75;;
66946;SDS011;53853;51.982;5.928;2024-02-04T00:11:03;12.85;;;10.10;;
66946;SDS011;53853;51.982;5.928;2024-02-04T00:13:38;8.88;;;7.95;;
66946;SDS011;53853;51.982;5.928;2024-02-04T00:16:08;9.68;;;7.82;;
66946;SDS011;53853;51.982;5.928;2024-02-04T00:18:38;10.93;;;9.65;;
66946;SDS011;53853;51.982;5.928;2024-02-04T00:21:09;10.98;;;9.88;;
66946;SDS011;53853;51.982;5.928;2024-02-04T00:23:39;10.68;;;9.57;;
66946;SDS011;53853;51.982;5.928;2024-02-04T00:26:09;10.73;;;9.73;;
66946;SDS011;53853;51.982;5.928;2024-02-04T00:28:41;10.52;;;7.47;;
66946;SDS011;53853;51.982;5.928;2024-02-04T00:31:11;9.95;;;8.85;;
66946;SDS011;53853;51.982;5.928;2024-02-04T00:33:38;9.80;;;8.50;;
66946;SDS011;53853;51.982;5.928;2024-02-04T00:36:08;13.35;;;10.52;;
66946;SDS011;53853;51.982;5.928;2024-02-04T00:38:38;11.10;;;8.88;;
66946;SDS011;53853;51.982;5.928;2024-02-04T00:41:08;13.25;;;10.27;;
66946;SDS011;53853;51.982;5.928;2024-02-04T00:43:41;7.13;;;6.18;;
66946;SDS011;53853;51.982;5.928;2024-02-04T00:46:11;15.90;;;11.70;;
66946;SDS011;53853;51.982;5.928;2024-02-04T00:48:40;10.02;;;7.80;;
66946;SDS011;53853;51.982;5.928;2024-02-04T00:51:10;8.75;;;7.57;;
66946;SDS011;53853;51.982;5.928;2024-02-04T00:53:43;17.17;;;11.90;;
66946;SDS011;53853;51.982;5.928;2024-02-04T00:56:12;16.65;;;13.18;;
66946;SDS011;53853;51.982;5.928;2024-02-04T00:58:45;23.52;;;14.65;;
66946;SDS011;53853;51.982;5.928;2024-02-04T01:01:17;24.98;;;15.27;;
66946;SDS011;53853;51.982;5.928;2024-02-04T01:03:49;32.30;;;16.25;;
66946;SDS011;53853;51.982;5.928;2024-02-04T01:06:19;25.83;;;16.00;;
66946;SDS011;53853;51.982;5.928;2024-02-04T01:08:49;27.10;;;18.08;;
66946;SDS011;53853;51.982;5.928;2024-02-04T01:11:19;15.90;;;11.18;;
66946;SDS011;53853;51.982;5.928;2024-02-04T01:13:53;22.10;;;13.40;;
66946;SDS011;53853;51.982;5.928;2024-02-04T01:16:23;26.60;;;18.02;;
66946;SDS011;53853;51.982;5.928;2024-02-04T01:18:54;19.33;;;11.38;;
66946;SDS011;53853;51.982;5.928;2024-02-04T01:21:24;24.77;;;14.80;;
66946;SDS011;53853;51.982;5.928;2024-02-04T01:23:54;20.73;;;13.95;;
66946;SDS011;53853;51.982;5.928;2024-02-04T01:26:24;16.85;;;12.82;;
66946;SDS011;53853;51.982;5.928;2024-02-04T01:28:58;17.83;;;13.52;;
66946;SDS011;53853;51.982;5.928;2024-02-04T01:31:28;21.73;;;12.07;;
66946;SDS011;53853;51.982;5.928;2024-02-04T01:33:58;18.50;;;13.45;;
66946;SDS011;53853;51.982;5.928;2024-02-04T01:36:28;17.98;;;12.02;;
66946;SDS011;53853;51.982;5.928;2024-02-04T01:38:58;12.30;;;8.43;;
66946;SDS011;53853;51.982;5.928;2024-02-04T01:41:28;15.23;;;10.63;;
66946;SDS011;53853;51.982;5.928;2024-02-04T01:44:02;18.23;;;12.35;;
66946;SDS011;53853;51.982;5.928;2024-02-04T01:46:32;20.42;;;12.77;;
66946;SDS011;53853;51.982;5.928;2024-02-04T01:49:02;14.13;;;10.45;;
66946;SDS011;53853;51.982;5.928;2024-02-04T01:51:32;17.85;;;11.30;;
66946;SDS011;53853;51.982;5.928;2024-02-04T01:54:03;18.02;;;11.32;;
66946;SDS011;53853;51.982;5.928;2024-02-04T01:56:33;20.20;;;13.10;;
66946;SDS011;53853;51.982;5.928;2024-02-04T01:59:08;12.93;;;9.02;;
66946;SDS011;53853;51.982;5.928;2024-02-04T02:01:39;19.65;;;8.77;;
66946;SDS011;53853;51.982;5.928;2024-02-04T02:04:10;17.92;;;10.75;;
66946;SDS011;53853;51.982;5.928;2024-02-04T02:06:40;16.98;;;11.25;;
66946;SDS011;53853;51.982;5.928;2024-02-04T02:09:10;15.88;;;10.48;;
66946;SDS011;53853;51.982;5.928;2024-02-04T02:11:41;17.10;;;9.93;;
66946;SDS011;53853;51.982;5.928;2024-02-04T02:14:17;11.38;;;7.65;;
66946;SDS011;53853;51.982;5.928;2024-02-04T02:16:51;12.65;;;8.82;;
66946;SDS011;53853;51.982;5.928;2024-02-04T02:19:31;13.93;;;8.30;;
66946;SDS011;53853;51.982;5.928;2024-02-04T02:22:11;21.90;;;13.13;;
66946;SDS011;53853;51.982;5.928;2024-02-04T02:27:26;17.70;;;10.30;;
66946;SDS011;53853;51.982;5.928;2024-02-04T02:29:56;15.15;;;11.23;;
66946;SDS011;53853;51.982;5.928;2024-02-04T02:32:26;18.50;;;10.10;;
66946;SDS011;53853;51.982;5.928;2024-02-04T02:34:56;21.95;;;12.13;;
66946;SDS011;53853;51.982;5.928;2024-02-04T02:37:27;13.52;;;8.48;;
66946;SDS011;53853;51.982;5.928;2024-02-04T02:40:08;18.13;;;12.00;;
66946;SDS011;53853;51.982;5.928;2024-02-04T02:42:43;9.77;;;7.47;;
66946;SDS011;53853;51.982;5.928;2024-02-04T02:45:15;15.48;;;10.55;;
66946;SDS011;53853;51.982;5.928;2024-02-04T02:47:47;17.33;;;10.60;;
66946;SDS011;53853;51.982;5.928;2024-02-04T02:50:18;17.88;;;10.70;;
66946;SDS011;53853;51.982;5.928;2024-02-04T02:52:48;15.50;;;10.60;;
66946;SDS011;53853;51.982;5.928;2024-02-04T02:55:21;11.07;;;6.57;;
66946;SDS011;53853;51.982;5.928;2024-02-04T02:57:51;19.80;;;11.10;;
66946;SDS011;53853;51.982;5.928;2024-02-04T03:00:21;14.73;;;9.63;;
66946;SDS011;53853;51.982;5.928;2024-02-04T03:02:51;15.57;;;9.88;;
66946;SDS011;53853;51.982;5.928;2024-02-04T03:05:21;18.33;;;9.88;;
66946;SDS011;53853;51.982;5.928;2024-02-04T03:07:51;13.52;;;8.68;;
66946;SDS011;53853;51.982;5.928;2024-02-04T03:10:23;15.18;;;9.98;;
66946;SDS011;53853;51.982;5.928;2024-02-04T03:12:53;15.93;;;9.52;;
66946;SDS011;53853;51.982;5.928;2024-02-04T03:15:23;18.65;;;11.68;;
66946;SDS011;53853;51.982;5.928;2024-02-04T03:17:53;13.25;;;8.82;;
66946;SDS011;53853;51.982;5.928;2024-02-04T03:20:23;17.20;;;9.88;;
66946;SDS011;53853;51.982;5.928;2024-02-04T03:22:54;14.60;;;10.05;;
66946;SDS011;53853;51.982;5.928;2024-02-04T03:25:27;18.02;;;9.75;;
66946;SDS011;53853;51.982;5.928;2024-02-04T03:27:57;17.35;;;9.98;;
66946;SDS011;53853;51.982;5.928;2024-02-04T03:30:27;17.00;;;10.43;;
66946;SDS011;53853;51.982;5.928;2024-02-04T03:32:57;21.17;;;10.82;;
66946;SDS011;53853;51.982;5.928;2024-02-04T03:35:27;16.98;;;10.40;;
66946;SDS011;53853;51.982;5.928;2024-02-04T03:37:57;17.80;;;11.73;;
66946;SDS011;53853;51.982;5.928;2024-02-04T03:40:30;16.73;;;11.35;;
66946;SDS011;53853;51.982;5.928;2024-02-04T03:43:00;18.02;;;11.23;;
66946;SDS011;53853;51.982;5.928;2024-02-04T03:45:30;16.17;;;10.95;;
66946;SDS011;53853;51.982;5.928;2024-02-04T03:48:00;19.92;;;12.77;;
66946;SDS011;53853;51.982;5.928;2024-02-04T03:50:29;23.58;;;13.95;;
66946;SDS011;53853;51.982;5.928;2024-02-04T03:52:59;17.83;;;12.88;;
66946;SDS011;53853;51.982;5.928;2024-02-04T03:55:32;19.25;;;12.13;;
66946;SDS011;53853;51.982;5.928;2024-02-04T03:58:02;18.73;;;11.85;;
66946;SDS011;53853;51.982;5.928;2024-02-04T04:00:32;13.93;;;8.85;;
66946;SDS011;53853;51.982;5.928;2024-02-04T04:03:02;13.48;;;8.90;;
66946;SDS011;53853;51.982;5.928;2024-02-04T04:05:32;18.35;;;10.30;;
66946;SDS011;53853;51.982;5.928;2024-02-04T04:08:03;15.13;;;9.05;;
66946;SDS011;53853;51.982;5.928;2024-02-04T04:10:36;9.75;;;6.68;;
66946;SDS011;53853;51.982;5.928;2024-02-04T04:13:05;13.63;;;8.95;;
66946;SDS011;53853;51.982;5.928;2024-02-04T04:15:35;15.63;;;9.63;;
66946;SDS011;53853;51.982;5.928;2024-02-04T04:18:06;18.05;;;9.77;;
66946;SDS011;53853;51.982;5.928;2024-02-04T04:20:37;12.35;;;8.05;;
66946;SDS011;53853;51.982;5.928;2024-02-04T04:23:07;17.05;;;9.63;;
66946;SDS011;53853;51.982;5.928;2024-02-04T04:25:39;18.48;;;9.88;;
66946;SDS011;53853;51.982;5.928;2024-02-04T04:28:09;13.85;;;8.93;;
66946;SDS011;53853;51.982;5.928;2024-02-04T04:30:39;12.57;;;8.10;;
66946;SDS011;53853;51.982;5.928;2024-02-04T04:33:09;11.13;;;8.70;;
66946;SDS011;53853;51.982;5.928;2024-02-04T04:35:39;13.52;;;8.85;;
66946;SDS011;53853;51.982;5.928;2024-02-04T04:38:09;11.95;;;7.55;;
66946;SDS011;53853;51.982;5.928;2024-02-04T04:40:42;17.63;;;10.05;;
66946;SDS011;53853;51.982;5.928;2024-02-04T04:43:12;20.52;;;10.68;;
66946;SDS011;53853;51.982;5.928;2024-02-04T04:45:42;19.40;;;11.95;;
66946;SDS011;53853;51.982;5.928;2024-02-04T04:48:12;15.52;;;10.70;;
66946;SDS011;53853;51.982;5.928;2024-02-04T04:50:41;14.90;;;9.15;;
66946;SDS011;53853;51.982;5.928;2024-02-04T04:53:12;19.73;;;11.57;;
66946;SDS011;53853;51.982;5.928;2024-02-04T04:55:44;12.32;;;9.07;;
66946;SDS011;53853;51.982;5.928;2024-02-04T04:58:14;16.88;;;10.13;;
66946;SDS011;53853;51.982;5.928;2024-02-04T05:00:44;17.85;;;10.27;;
66946;SDS011;53853;51.982;5.928;2024-02-04T05:03:14;13.50;;;8.38;;
66946;SDS011;53853;51.982;5.928;2024-02-04T05:05:44;20.15;;;11.02;;
66946;SDS011;53853;51.982;5.928;2024-02-04T05:08:14;17.73;;;10.43;;
66946;SDS011;53853;51.982;5.928;2024-02-04T05:10:46;29.38;;;12.13;;
66946;SDS011;53853;51.982;5.928;2024-02-04T05:13:16;19.48;;;11.73;;
66946;SDS011;53853;51.982;5.928;2024-02-04T05:15:46;17.63;;;10.40;;
66946;SDS011;53853;51.982;5.928;2024-02-04T05:18:16;15.32;;;10.93;;
66946;SDS011;53853;51.982;5.928;2024-02-04T05:20:46;16.70;;;11.00;;
66946;SDS011;53853;51.982;5.928;2024-02-04T05:23:16;11.45;;;7.50;;
66946;SDS011;53853;51.982;5.928;2024-02-04T05:25:49;13.63;;;8.65;;
66946;SDS011;53853;51.982;5.928;2024-02-04T05:28:18;13.38;;;8.75;;
66946;SDS011;53853;51.982;5.928;2024-02-04T05:30:48;10.57;;;7.10;;
66946;SDS011;53853;51.982;5.928;2024-02-04T05:33:18;10.93;;;7.82;;
66946;SDS011;53853;51.982;5.928;2024-02-04T05:35:48;11.27;;;6.97;;
66946;SDS011;53853;51.982;5.928;2024-02-04T05:38:18;15.63;;;9.20;;
66946;SDS011;53853;51.982;5.928;2024-02-04T05:40:52;12.68;;;6.85;;
66946;SDS011;53853;51.982;5.928;2024-02-04T05:43:22;7.35;;;5.22;;
66946;SDS011;53853;51.982;5.928;2024-02-04T05:45:52;14.40;;;8.23;;
66946;SDS011;53853;51.982;5.928;2024-02-04T05:48:22;9.30;;;6.53;;
66946;SDS011;53853;51.982;5.928;2024-02-04T05:50:52;11.07;;;6.70;;
66946;SDS011;53853;51.982;5.928;2024-02-04T05:53:22;10.60;;;7.40;;
66946;SDS011;53853;51.982;5.928;2024-02-04T05:55:54;8.70;;;6.30;;
66946;SDS011;53853;51.982;5.928;2024-02-04T05:58:24;13.18;;;8.70;;
66946;SDS011;53853;51.982;5.928;2024-02-04T06:00:54;12.25;;;6.70;;
66946;SDS011;53853;51.982;5.928;2024-02-04T06:03:24;9.25;;;5.85;;
66946;SDS011;53853;51.982;5.928;2024-02-04T06:05:54;11.93;;;7.88;;
66946;SDS011;53853;51.982;5.928;2024-02-04T06:08:24;11.85;;;7.57;;
66946;SDS011;53853;51.982;5.928;2024-02-04T06:10:56;15.80;;;9.35;;
66946;SDS011;53853;51.982;5.928;2024-02-04T06:13:26;12.90;;;8.15;;
66946;SDS011;53853;51.982;5.928;2024-02-04T06:15:56;11.43;;;6.30;;
66946;SDS011;53853;51.982;5.928;2024-02-04T06:18:26;15.50;;;7.97;;
66946;SDS011;53853;51.982;5.928;2024-02-04T06:20:56;11.30;;;8.38;;
66946;SDS011;53853;51.982;5.928;2024-02-04T06:23:25;13.05;;;8.07;;
66946;SDS011;53853;51.982;5.928;2024-02-04T06:25:58;12.82;;;7.72;;
66946;SDS011;53853;51.982;5.928;2024-02-04T06:28:28;12.10;;;6.55;;
66946;SDS011;53853;51.982;5.928;2024-02-04T06:30:58;14.23;;;9.05;;
66946;SDS011;53853;51.982;5.928;2024-02-04T06:33:28;19.23;;;9.43;;
66946;SDS011;53853;51.982;5.928;2024-02-04T06:35:58;12.00;;;7.82;;
66946;SDS011;53853;51.982;5.928;2024-02-04T06:38:29;15.38;;;9.27;;
66946;SDS011;53853;51.982;5.928;2024-02-04T06:41:01;14.18;;;9.60;;
66946;SDS011;53853;51.982;5.928;2024-02-04T06:43:31;14.73;;;8.65;;
66946;SDS011;53853;51.982;5.928;2024-02-04T06:46:01;12.27;;;8.00;;
66946;SDS011;53853;51.982;5.928;2024-02-04T06:48:31;10.68;;;8.65;;
66946;SDS011;53853;51.982;5.928;2024-02-04T06:51:01;12.18;;;7.38;;
66946;SDS011;53853;51.982;5.928;2024-02-04T06:53:31;13.60;;;10.80;;
66946;SDS011;53853;51.982;5.928;2024-02-04T06:56:04;12.00;;;10.43;;
66946;SDS011;53853;51.982;5.928;2024-02-04T06:58:36;18.52;;;11.68;;
66946;SDS011;53853;51.982;5.928;2024-02-04T07:01:06;17.17;;;12.23;;
66946;SDS011;53853;51.982;5.928;2024-02-04T07:03:36;14.07;;;11.82;;
66946;SDS011;53853;51.982;5.928;2024-02-04T07:06:06;10.30;;;8.50;;
66946;SDS011;53853;51.982;5.928;2024-02-04T07:08:36;19.83;;;15.35;;
66946;SDS011;53853;51.982;5.928;2024-02-04T07:11:09;14.30;;;12.80;;
66946;SDS011;53853;51.982;5.928;2024-02-04T07:13:39;19.00;;;17.00;;
66946;SDS011;53853;51.982;5.928;2024-02-04T07:16:08;27.70;;;22.00;;
66946;SDS011;53853;51.982;5.928;2024-02-04T07:18:38;21.17;;;18.77;;
66946;SDS011;53853;51.982;5.928;2024-02-04T07:21:08;14.65;;;13.15;;
66946;SDS011;53853;51.982;5.928;2024-02-04T07:23:38;16.52;;;13.52;;
66946;SDS011;53853;51.982;5.928;2024-02-04T07:26:11;18.80;;;15.18;;
66946;SDS011;53853;51.982;5.928;2024-02-04T07:28:40;25.08;;;18.30;;
66946;SDS011;53853;51.982;5.928;2024-02-04T07:31:10;22.60;;;17.90;;
66946;SDS011;53853;51.982;5.928;2024-02-04T07:33:40;18.17;;;13.30;;
66946;SDS011;53853;51.982;5.928;2024-02-04T07:36:11;21.63;;;14.68;;
66946;SDS011;53853;51.982;5.928;2024-02-04T07:38:41;19.30;;;13.20;;
66946;SDS011;53853;51.982;5.928;2024-02-04T07:41:15;23.58;;;15.20;;
66946;SDS011;53853;51.982;5.928;2024-02-04T07:43:45;17.90;;;14.07;;
66946;SDS011;53853;51.982;5.928;2024-02-04T07:46:15;22.30;;;13.88;;
66946;SDS011;53853;51.982;5.928;2024-02-04T07:48:45;17.48;;;12.50;;
66946;SDS011;53853;51.982;5.928;2024-02-04T07:51:15;19.02;;;13.75;;
66946;SDS011;53853;51.982;5.928;2024-02-04T07:53:46;23.10;;;14.18;;
66946;SDS011;53853;51.982;5.928;2024-02-04T07:56:18;27.25;;;15.48;;
66946;SDS011;53853;51.982;5.928;2024-02-04T07:58:48;16.73;;;12.60;;
66946;SDS011;53853;51.982;5.928;2024-02-04T08:01:18;17.02;;;10.63;;
66946;SDS011;53853;51.982;5.928;2024-02-04T08:03:49;15.57;;;11.93;;
66946;SDS011;53853;51.982;5.928;2024-02-04T08:06:19;18.10;;;9.65;;
66946;SDS011;53853;51.982;5.928;2024-02-04T08:08:46;19.13;;;10.15;;
66946;SDS011;53853;51.982;5.928;2024-02-04T08:11:19;20.08;;;11.27;;
66946;SDS011;53853;51.982;5.928;2024-02-04T08:13:49;18.38;;;9.95;;
66946;SDS011;53853;51.982;5.928;2024-02-04T08:16:23;14.38;;;8.43;;
66946;SDS011;53853;51.982;5.928;2024-02-04T08:18:52;12.80;;;7.90;;
66946;SDS011;53853;51.982;5.928;2024-02-04T08:21:23;17.95;;;8.77;;
66946;SDS011;53853;51.982;5.928;2024-02-04T08:23:53;16.20;;;8.38;;
66946;SDS011;53853;51.982;5.928;2024-02-04T08:26:25;16.98;;;8.15;;
66946;SDS011;53853;51.982;5.928;2024-02-04T08:28:55;13.32;;;7.15;;
66946;SDS011;53853;51.982;5.928;2024-02-04T08:31:25;10.35;;;5.85;;
66946;SDS011;53853;51.982;5.928;2024-02-04T08:33:55;13.95;;;7.80;;
66946;SDS011;53853;51.982;5.928;2024-02-04T08:36:25;13.50;;;8.20;;
66946;SDS011;53853;51.982;5.928;2024-02-04T08:38:56;14.13;;;9.27;;
66946;SDS011;53853;51.982;5.928;2024-02-04T08:41:29;19.52;;;10.68;;
66946;SDS011;53853;51.982;5.928;2024-02-04T08:43:59;15.38;;;8.20;;
66946;SDS011;53853;51.982;5.928;2024-02-04T08:46:28;17.88;;;9.05;;
66946;SDS011;53853;51.982;5.928;2024-02-04T08:48:58;14.35;;;7.63;;
66946;SDS011;53853;51.982;5.928;2024-02-04T08:51:28;17.45;;;9.02;;
66946;SDS011;53853;51.982;5.928;2024-02-04T08:53:58;18.48;;;8.63;;
66946;SDS011;53853;51.982;5.928;2024-02-04T08:56:31;10.82;;;7.40;;
66946;SDS011;53853;51.982;5.928;2024-02-04T08:59:01;13.77;;;7.78;;
66946;SDS011;53853;51.982;5.928;2024-02-04T09:01:32;13.93;;;8.85;;
66946;SDS011;53853;51.982;5.928;2024-02-04T09:04:02;14.13;;;7.00;;
66946;SDS011;53853;51.982;5.928;2024-02-04T09:06:32;17.17;;;7.25;;
66946;SDS011;53853;51.982;5.928;2024-02-04T09:09:02;11.38;;;5.85;;
66946;SDS011;53853;51.982;5.928;2024-02-04T09:11:36;9.77;;;5.85;;
66946;SDS011;53853;51.982;5.928;2024-02-04T09:14:06;10.43;;;4.75;;
66946;SDS011;53853;51.982;5.928;2024-02-04T09:16:37;10.82;;;5.40;;
66946;SDS011;53853;51.982;5.928;2024-02-04T09:19:07;10.38;;;5.85;;
66946;SDS011;53853;51.982;5.928;2024-02-04T09:21:37;10.57;;;6.25;;
66946;SDS011;53853;51.982;5.928;2024-02-04T09:24:08;8.27;;;5.32;;
66946;SDS011;53853;51.982;5.928;2024-02-04T09:26:40;13.98;;;6.38;;
66946;SDS011;53853;51.982;5.928;2024-02-04T09:29:10;14.85;;;7.05;;
66946;SDS011;53853;51.982;5.928;2024-02-04T09:31:40;10.52;;;6.72;;
66946;SDS011;53853;51.982;5.928;2024-02-04T09:34:10;9.57;;;5.20;;
66946;SDS011;53853;51.982;5.928;2024-02-04T09:36:40;15.25;;;7.38;;
66946;SDS011;53853;51.982;5.928;2024-02-04T09:39:10;10.18;;;8.15;;
66946;SDS011;53853;51.982;5.928;2024-02-04T09:41:43;16.60;;;8.05;;
66946;SDS011;53853;51.982;5.928;2024-02-04T09:44:13;16.23;;;8.00;;
66946;SDS011;53853;51.982;5.928;2024-02-04T09:46:43;13.77;;;7.70;;
66946;SDS011;53853;51.982;5.928;2024-02-04T09:49:13;13.63;;;6.45;;
66946;SDS011;53853;51.982;5.928;2024-02-04T09:51:43;10.57;;;7.13;;
66946;SDS011;53853;51.982;5.928;2024-02-04T09:54:13;11.45;;;7.10;;
66946;SDS011;53853;51.982;5.928;2024-02-04T09:56:48;12.23;;;7.38;;
66946;SDS011;53853;51.982;5.928;2024-02-04T09:59:19;11.70;;;6.63;;
66946;SDS011;53853;51.982;5.928;2024-02-04T10:01:49;9.20;;;5.85;;
66946;SDS011;53853;51.982;5.928;2024-02-04T10:04:19;8.27;;;5.28;;
66946;SDS011;53853;51.982;5.928;2024-02-04T10:06:49;8.93;;;5.90;;
66946;SDS011;53853;51.982;5.928;2024-02-04T10:09:19;13.80;;;6.22;;
66946;SDS011;53853;51.982;5.928;2024-02-04T10:11:52;11.77;;;5.72;;
66946;SDS011;53853;51.982;5.928;2024-02-04T10:14:22;10.98;;;5.70;;
66946;SDS011;53853;51.982;5.928;2024-02-04T10:16:52;10.80;;;4.72;;
66946;SDS011;53853;51.982;5.928;2024-02-04T10:19:23;6.80;;;4.20;;
66946;SDS011;53853;51.982;5.928;2024-02-04T10:22:00;9.15;;;4.38;;
66946;SDS011;53853;51.982;5.928;2024-02-04T10:24:30;7.35;;;4.60;;
66946;SDS011;53853;51.982;5.928;2024-02-04T10:27:03;9.13;;;4.30;;
66946;SDS011;53853;51.982;5.928;2024-02-04T10:29:33;9.40;;;3.92;;
66946;SDS011;53853;51.982;5.928;2024-02-04T10:32:04;10.57;;;4.40;;
66946;SDS011;53853;51.982;5.928;2024-02-04T10:34:36;6.13;;;3.75;;
66946;SDS011;53853;51.982;5.928;2024-02-04T10:37:06;11.10;;;3.88;;
66946;SDS011;53853;51.982;5.928;2024-02-04T10:39:36;9.45;;;3.70;;
66946;SDS011;53853;51.982;5.928;2024-02-04T10:42:08;6.85;;;3.42;;
66946;SDS011;53853;51.982;5.928;2024-02-04T10:44:42;9.57;;;3.83;;
66946;SDS011;53853;51.982;5.928;2024-02-04T10:47:15;7.85;;;3.80;;
66946;SDS011;53853;51.982;5.928;2024-02-04T10:49:49;8.43;;;3.55;;
66946;SDS011;53853;51.982;5.928;2024-02-04T10:52:22;5.35;;;3.22;;
66946;SDS011;53853;51.982;5.928;2024-02-04T10:54:55;6.85;;;2.40;;
66946;SDS011;53853;51.982;5.928;2024-02-04T10:57:28;5.43;;;2.55;;
66946;SDS011;53853;51.982;5.928;2024-02-04T10:59:58;7.50;;;2.90;;
66946;SDS011;53853;51.982;5.928;2024-02-04T11:02:30;9.25;;;4.15;;
66946;SDS011;53853;51.982;5.928;2024-02-04T11:05:03;7.35;;;2.72;;
66946;SDS011;53853;51.982;5.928;2024-02-04T11:07:34;6.72;;;2.80;;
66946;SDS011;53853;51.982;5.928;2024-02-04T11:10:05;6.93;;;2.70;;
66946;SDS011;53853;51.982;5.928;2024-02-04T11:12:38;6.18;;;2.20;;
66946;SDS011;53853;51.982;5.928;2024-02-04T11:15:10;6.63;;;2.30;;
66946;SDS011;53853;51.982;5.928;2024-02-04T11:17:57;5.45;;;1.83;;
66946;SDS011;53853;51.982;5.928;2024-02-04T11:20:58;5.22;;;2.47;;
66946;SDS011;53853;51.982;5.928;2024-02-04T11:23:50;4.30;;;2.08;;
66946;SDS011;53853;51.982;5.928;2024-02-04T11:29:06;5.07;;;2.20;;
66946;SDS011;53853;51.982;5.928;2024-02-04T11:31:38;3.45;;;2.03;;
66946;SDS011;53853;51.982;5.928;2024-02-04T11:34:08;3.90;;;2.42;;
66946;SDS011;53853;51.982;5.928;2024-02-04T11:36:39;4.72;;;1.80;;
66946;SDS011;53853;51.982;5.928;2024-02-04T11:39:13;5.68;;;2.10;;
66946;SDS011;53853;51.982;5.928;2024-02-04T11:41:48;3.10;;;1.42;;
66946;SDS011;53853;51.982;5.928;2024-02-04T11:44:24;2.17;;;1.45;;
66946;SDS011;53853;51.982;5.928;2024-02-04T11:46:55;2.70;;;1.50;;
66946;SDS011;53853;51.982;5.928;2024-02-04T11:49:25;2.33;;;1.10;;
66946;SDS011;53853;51.982;5.928;2024-02-04T11:51:55;2.65;;;1.15;;
66946;SDS011;53853;51.982;5.928;2024-02-04T11:54:25;2.25;;;1.10;;
66946;SDS011;53853;51.982;5.928;2024-02-04T11:56:55;1.35;;;0.95;;
66946;SDS011;53853;51.982;5.928;2024-02-04T11:59:29;2.20;;;1.40;;
66946;SDS011;53853;51.982;5.928;2024-02-04T12:02:05;2.10;;;1.48;;
66946;SDS011;53853;51.982;5.928;2024-02-04T12:04:37;1.95;;;1.20;;
66946;SDS011;53853;51.982;5.928;2024-02-04T12:07:09;3.65;;;1.75;;
66946;SDS011;53853;51.982;5.928;2024-02-04T12:09:39;2.28;;;1.70;;
66946;SDS011;53853;51.982;5.928;2024-02-04T12:12:09;2.22;;;1.75;;
66946;SDS011;53853;51.982;5.928;2024-02-04T12:14:43;3.65;;;2.30;;
66946;SDS011;53853;51.982;5.928;2024-02-04T12:17:14;4.63;;;2.67;;
66946;SDS011;53853;51.982;5.928;2024-02-04T12:19:46;4.15;;;2.38;;
66946;SDS011;53853;51.982;5.928;2024-02-04T12:22:16;5.35;;;2.80;;
66946;SDS011;53853;51.982;5.928;2024-02-04T12:24:46;9.25;;;4.47;;
66946;SDS011;53853;51.982;5.928;2024-02-04T12:27:16;6.45;;;3.42;;
66946;SDS011;53853;51.982;5.928;2024-02-04T12:29:50;5.25;;;3.85;;
66946;SDS011;53853;51.982;5.928;2024-02-04T12:32:20;9.50;;;4.97;;
66946;SDS011;53853;51.982;5.928;2024-02-04T12:34:50;8.30;;;4.32;;
66946;SDS011;53853;51.982;5.928;2024-02-04T12:37:22;7.35;;;3.78;;
66946;SDS011;53853;51.982;5.928;2024-02-04T12:39:52;8.60;;;4.78;;
66946;SDS011;53853;51.982;5.928;2024-02-04T12:42:22;9.52;;;4.93;;
66946;SDS011;53853;51.982;5.928;2024-02-04T12:44:56;10.98;;;4.75;;
66946;SDS011;53853;51.982;5.928;2024-02-04T12:49:59;10.27;;;5.10;;
66946;SDS011;53853;51.982;5.928;2024-02-04T12:52:29;7.25;;;3.75;;
66946;SDS011;53853;51.982;5.928;2024-02-04T12:55:04;11.50;;;5.15;;
66946;SDS011;53853;51.982;5.928;2024-02-04T12:57:34;11.45;;;4.97;;
66946;SDS011;53853;51.982;5.928;2024-02-04T13:00:07;8.75;;;4.63;;
66946;SDS011;53853;51.982;5.928;2024-02-04T13:02:38;9.70;;;4.80;;
66946;SDS011;53853;51.982;5.928;2024-02-04T13:05:10;9.85;;;4.35;;
66946;SDS011;53853;51.982;5.928;2024-02-04T13:07:51;9.80;;;5.00;;
66946;SDS011;53853;51.982;5.928;2024-02-04T13:10:23;8.95;;;4.70;;
66946;SDS011;53853;51.982;5.928;2024-02-04T13:13:03;13.63;;;4.50;;
66946;SDS011;53853;51.982;5.928;2024-02-04T13:15:37;9.13;;;4.78;;
66946;SDS011;53853;51.982;5.928;2024-02-04T13:18:09;13.10;;;5.93;;
66946;SDS011;53853;51.982;5.928;2024-02-04T13:20:41;11.70;;;5.03;;
66946;SDS011;53853;51.982;5.928;2024-02-04T13:23:11;12.90;;;5.45;;
66946;SDS011;53853;51.982;5.928;2024-02-04T13:25:41;15.63;;;5.50;;
66946;SDS011;53853;51.982;5.928;2024-02-04T13:28:12;12.38;;;5.05;;
66946;SDS011;53853;51.982;5.928;2024-02-04T13:30:46;11.20;;;4.53;;
66946;SDS011;53853;51.982;5.928;2024-02-04T13:33:16;12.73;;;4.68;;
66946;SDS011;53853;51.982;5.928;2024-02-04T13:35:46;10.10;;;4.55;;
66946;SDS011;53853;51.982;5.928;2024-02-04T13:38:16;8.30;;;4.47;;
66946;SDS011;53853;51.982;5.928;2024-02-04T13:40:46;13.63;;;5.32;;
66946;SDS011;53853;51.982;5.928;2024-02-04T13:43:16;9.52;;;4.80;;
66946;SDS011;53853;51.982;5.928;2024-02-04T13:45:49;13.73;;;5.50;;
66946;SDS011;53853;51.982;5.928;2024-02-04T13:48:19;15.18;;;7.05;;
66946;SDS011;53853;51.982;5.928;2024-02-04T13:50:51;11.07;;;5.18;;
66946;SDS011;53853;51.982;5.928;2024-02-04T13:53:22;9.73;;;4.72;;
66946;SDS011;53853;51.982;5.928;2024-02-04T13:55:52;12.75;;;5.40;;
66946;SDS011;53853;51.982;5.928;2024-02-04T13:58:24;15.60;;;6.05;;
66946;SDS011;53853;51.982;5.928;2024-02-04T14:00:56;8.50;;;4.30;;
66946;SDS011;53853;51.982;5.928;2024-02-04T14:03:26;16.60;;;6.95;;
66946;SDS011;53853;51.982;5.928;2024-02-04T14:05:56;15.63;;;6.10;;
66946;SDS011;53853;51.982;5.928;2024-02-04T14:08:29;15.18;;;5.65;;
66946;SDS011;53853;51.982;5.928;2024-02-04T14:10:59;14.32;;;5.38;;
66946;SDS011;53853;51.982;5.928;2024-02-04T14:13:29;10.18;;;4.55;;
66946;SDS011;53853;51.982;5.928;2024-02-04T14:16:04;18.98;;;5.97;;
66946;SDS011;53853;51.982;5.928;2024-02-04T14:18:35;13.30;;;5.70;;
66946;SDS011;53853;51.982;5.928;2024-02-04T14:21:06;9.23;;;4.43;;
66946;SDS011;53853;51.982;5.928;2024-02-04T14:23:39;16.63;;;5.87;;
66946;SDS011;53853;51.982;5.928;2024-02-04T14:26:15;10.10;;;3.85;;
66946;SDS011;53853;51.982;5.928;2024-02-04T14:28:45;13.55;;;6.15;;
66946;SDS011;53853;51.982;5.928;2024-02-04T14:31:18;15.30;;;6.00;;
66946;SDS011;53853;51.982;5.928;2024-02-04T14:33:48;14.10;;;5.72;;
66946;SDS011;53853;51.982;5.928;2024-02-04T14:36:18;14.07;;;6.53;;
66946;SDS011;53853;51.982;5.928;2024-02-04T14:38:48;13.90;;;5.68;;
66946;SDS011;53853;51.982;5.928;2024-02-04T14:41:18;16.45;;;5.80;;
66946;SDS011;53853;51.982;5.928;2024-02-04T14:43:47;13.75;;;6.25;;
66946;SDS011;53853;51.982;5.928;2024-02-04T14:46:20;12.68;;;5.30;;
66946;SDS011;53853;51.982;5.928;2024-02-04T14:48:51;14.80;;;5.77;;
66946;SDS011;53853;51.982;5.928;2024-02-04T14:51:21;13.25;;;4.57;;
66946;SDS011;53853;51.982;5.928;2024-02-04T14:53:50;10.32;;;5.30;;
66946;SDS011;53853;51.982;5.928;2024-02-04T14:56:24;12.15;;;5.05;;
66946;SDS011;53853;51.982;5.928;2024-02-04T14:58:54;9.63;;;4.60;;
66946;SDS011;53853;51.982;5.928;2024-02-04T15:01:26;11.30;;;5.00;;
66946;SDS011;53853;51.982;5.928;2024-02-04T15:03:56;17.33;;;6.25;;